Time;durP1;ratioP1;P1;durP2;ratioP2;P2;SDS_P1;SDS_P2;PMS_P1;PMS_P2;Temp;Humidity;BMP_temperature;BMP_pressure;BME280_temperature;BME280_humidity;BME280_pressure;Samples;Min_cycle;Max_cycle;Signal;HPM_P1;HPM_P2
2023/08/10 00:00:14;;;;;;;1.73;1.17;;;18.10;99.90;;;;;;7389144;19;20143;-75
2023/08/10 00:02:39;;;;;;;1.80;1.15;;;18.30;99.90;;;;;;7389149;19;20155;-74
2023/08/10 00:05:06;;;;;;;1.58;1.25;;;18.10;99.90;;;;;;7385868;19;20262;-73
2023/08/10 00:07:33;;;;;;;1.48;1.38;;;18.20;99.90;;;;;;7392893;19;20142;-73
2023/08/10 00:09:58;;;;;;;2.67;1.20;;;18.20;99.90;;;;;;7387615;19;20138;-74
2023/08/10 00:12:24;;;;;;;1.67;1.38;;;18.10;99.90;;;;;;7390442;19;20218;-75
2023/08/10 00:14:50;;;;;;;3.08;1.15;;;18.10;99.90;;;;;;7390495;19;20160;-74
2023/08/10 00:17:16;;;;;;;1.45;1.00;;;18.10;99.90;;;;;;7389633;19;20149;-74
2023/08/10 00:19:42;;;;;;;1.60;1.30;;;18.10;99.90;;;;;;7387792;19;20145;-73
2023/08/10 00:22:08;;;;;;;1.30;1.20;;;18.10;99.90;;;;;;7387857;19;20167;-73
2023/08/10 00:24:34;;;;;;;2.28;1.40;;;18.00;99.90;;;;;;7388673;19;20130;-74
2023/08/10 00:27:00;;;;;;;1.15;1.05;;;17.90;99.90;;;;;;7379924;19;20138;-73
2023/08/10 00:29:25;;;;;;;1.60;1.08;;;17.60;99.90;;;;;;7388174;19;20131;-74
2023/08/10 00:31:51;;;;;;;1.50;1.30;;;17.50;99.90;;;;;;7389810;19;20145;-74
2023/08/10 00:34:17;;;;;;;3.55;1.58;;;17.50;99.90;;;;;;7388346;19;20134;-75
2023/08/10 00:36:43;;;;;;;1.92;1.35;;;17.50;99.90;;;;;;7389767;19;20209;-74
2023/08/10 00:39:08;;;;;;;1.20;1.10;;;17.50;99.90;;;;;;7388055;19;20920;-74
2023/08/10 00:41:34;;;;;;;2.72;1.15;;;17.50;99.90;;;;;;7385131;19;20131;-73
2023/08/10 00:44:00;;;;;;;1.48;1.27;;;17.60;99.90;;;;;;7388459;19;20131;-74
2023/08/10 00:46:26;;;;;;;1.83;1.63;;;17.50;99.90;;;;;;7389083;19;20689;-74
2023/08/10 00:48:52;;;;;;;3.10;1.52;;;17.60;99.90;;;;;;7389663;19;20126;-74
2023/08/10 00:51:18;;;;;;;3.55;1.27;;;17.40;99.90;;;;;;7387421;19;20241;-73
2023/08/10 00:53:44;;;;;;;1.45;1.30;;;17.10;99.90;;;;;;7389857;19;20131;-73
2023/08/10 00:56:11;;;;;;;2.30;1.30;;;17.10;99.90;;;;;;7387670;19;20157;-73
2023/08/10 00:58:37;;;;;;;2.67;1.55;;;17.10;99.90;;;;;;7388576;19;20155;-74
2023/08/10 01:01:04;;;;;;;1.48;1.25;;;17.00;99.90;;;;;;7386854;19;20143;-75
2023/08/10 01:03:30;;;;;;;2.22;1.52;;;16.80;99.90;;;;;;7387222;19;20151;-75
2023/08/10 01:06:02;;;;;;;2.22;1.42;;;16.60;99.90;;;;;;7389960;19;20138;-74
2023/08/10 01:08:57;;;;;;;2.45;2.00;;;16.50;99.90;;;;;;7387731;19;20183;-73
2023/08/10 01:11:37;;;;;;;3.95;1.30;;;16.60;99.90;;;;;;7386228;19;20146;-73
2023/08/10 01:14:34;;;;;;;3.90;1.50;;;16.50;99.90;;;;;;7389913;19;20225;-74
2023/08/10 01:17:03;;;;;;;3.10;1.48;;;16.40;99.90;;;;;;7387801;19;20594;-74
2023/08/10 01:19:35;;;;;;;2.00;1.20;;;16.50;99.90;;;;;;7388122;19;20134;-74
2023/08/10 01:22:37;;;;;;;1.70;1.17;;;16.50;99.90;;;;;;7387000;19;20151;-74
2023/08/10 01:25:06;;;;;;;2.42;1.50;;;16.50;99.90;;;;;;7384174;19;20134;-74
2023/08/10 01:27:34;;;;;;;1.92;1.55;;;16.60;99.90;;;;;;7388082;19;20202;-74
2023/08/10 01:30:00;;;;;;;1.38;1.27;;;16.70;99.90;;;;;;7387199;19;20153;-74
2023/08/10 01:32:30;;;;;;;3.08;1.75;;;16.70;99.90;;;;;;7388456;19;20481;-76
2023/08/10 01:35:05;;;;;;;1.73;1.15;;;16.90;99.90;;;;;;7389179;19;20126;-73
2023/08/10 01:37:31;;;;;;;2.22;1.33;;;17.10;99.90;;;;;;7390254;19;20590;-73
2023/08/10 01:39:57;;;;;;;1.92;1.58;;;17.10;99.90;;;;;;7386102;19;20134;-75
2023/08/10 01:42:24;;;;;;;1.48;1.30;;;17.10;99.90;;;;;;7387438;19;20193;-74
2023/08/10 01:44:50;;;;;;;3.25;1.65;;;17.10;99.90;;;;;;7386977;19;20135;-74
2023/08/10 01:47:34;;;;;;;3.28;1.80;;;17.00;99.90;;;;;;7388710;19;20130;-75
2023/08/10 01:50:03;;;;;;;1.40;1.30;;;16.80;99.90;;;;;;7388674;19;20134;-73
2023/08/10 01:52:32;;;;;;;1.73;1.35;;;16.90;99.90;;;;;;7386129;19;20163;-73
2023/08/10 01:54:59;;;;;;;2.78;1.50;;;17.00;99.90;;;;;;7388051;19;20142;-73
2023/08/10 01:57:28;;;;;;;2.92;1.45;;;17.20;99.90;;;;;;7387448;19;20130;-75
2023/08/10 01:59:54;;;;;;;2.67;1.75;;;17.20;99.90;;;;;;7380924;19;20150;-75
2023/08/10 02:02:20;;;;;;;1.40;1.30;;;17.10;99.90;;;;;;7386947;19;20150;-75
2023/08/10 02:04:47;;;;;;;1.98;1.63;;;17.00;99.90;;;;;;7383020;19;20530;-73
2023/08/10 02:07:13;;;;;;;1.63;1.50;;;17.10;99.90;;;;;;7386183;19;20206;-74
2023/08/10 02:09:40;;;;;;;1.63;1.52;;;17.20;99.90;;;;;;7386178;19;20147;-75
2023/08/10 02:12:07;;;;;;;2.15;1.65;;;17.10;99.90;;;;;;7385641;19;20143;-74
2023/08/10 02:14:33;;;;;;;1.85;1.70;;;17.10;99.90;;;;;;7385510;19;20153;-72
2023/08/10 02:16:59;;;;;;;1.55;1.38;;;17.00;99.90;;;;;;7385520;19;20139;-73
2023/08/10 02:19:24;;;;;;;1.95;1.60;;;17.10;99.90;;;;;;7390193;19;20146;-74
2023/08/10 02:21:50;;;;;;;2.13;1.67;;;16.90;99.90;;;;;;7390682;19;20167;-75
2023/08/10 02:24:16;;;;;;;1.92;1.70;;;17.00;99.90;;;;;;7393506;19;20139;-74
2023/08/10 02:26:42;;;;;;;1.52;1.42;;;16.80;99.90;;;;;;7392141;19;20150;-73
2023/08/10 02:29:08;;;;;;;2.63;1.63;;;16.60;99.90;;;;;;7391785;19;20153;-75
2023/08/10 02:31:34;;;;;;;1.30;1.20;;;16.70;99.90;;;;;;7392321;19;20130;-74
2023/08/10 02:33:59;;;;;;;3.40;1.70;;;16.80;99.90;;;;;;7392468;19;20142;-73
2023/08/10 02:36:25;;;;;;;3.15;1.45;;;16.80;99.90;;;;;;7392195;19;20138;-73
2023/08/10 02:38:51;;;;;;;1.58;1.30;;;16.80;99.90;;;;;;7392565;19;20483;-74
2023/08/10 02:41:16;;;;;;;2.17;1.20;;;16.60;99.90;;;;;;7391195;19;20134;-75
2023/08/10 02:43:42;;;;;;;1.85;1.50;;;16.40;99.90;;;;;;7391903;19;20181;-75
2023/08/10 02:46:08;;;;;;;3.58;1.55;;;16.50;99.90;;;;;;7394802;19;20139;-74
2023/08/10 02:48:34;;;;;;;2.35;1.50;;;16.60;99.90;;;;;;7392968;19;20148;-74
2023/08/10 02:50:59;;;;;;;1.63;1.50;;;16.70;99.90;;;;;;7395450;19;20145;-74
2023/08/10 02:53:25;;;;;;;2.05;1.75;;;16.40;99.90;;;;;;7394028;19;20587;-74
2023/08/10 02:55:51;;;;;;;1.83;1.50;;;16.20;99.90;;;;;;7392717;19;20153;-74
2023/08/10 02:58:18;;;;;;;1.92;1.50;;;16.30;99.90;;;;;;7390856;19;20609;-74
2023/08/10 03:00:46;;;;;;;1.90;1.60;;;16.30;99.90;;;;;;7390687;19;20143;-74
2023/08/10 03:03:11;;;;;;;1.40;1.30;;;16.00;99.90;;;;;;7390801;19;20257;-74
2023/08/10 03:05:37;;;;;;;2.17;1.50;;;15.90;99.90;;;;;;7395856;19;20456;-74
2023/08/10 03:08:03;;;;;;;1.38;1.27;;;16.00;99.90;;;;;;7391108;19;20591;-76
2023/08/10 03:10:29;;;;;;;4.07;1.50;;;16.10;99.90;;;;;;7394481;19;20142;-74
2023/08/10 03:12:55;;;;;;;1.90;1.70;;;16.10;99.90;;;;;;7390716;19;20142;-74
2023/08/10 03:15:20;;;;;;;1.65;1.40;;;16.30;99.90;;;;;;7391821;19;20169;-75
2023/08/10 03:17:46;;;;;;;2.70;1.70;;;16.00;99.90;;;;;;7392069;19;20165;-74
2023/08/10 03:20:16;;;;;;;2.63;1.60;;;15.60;99.90;;;;;;7392520;19;20138;-74
2023/08/10 03:22:43;;;;;;;1.60;1.50;;;15.70;99.90;;;;;;7393978;19;20246;-74
2023/08/10 03:25:10;;;;;;;2.65;1.48;;;15.50;99.90;;;;;;7390788;19;20642;-76
2023/08/10 03:27:36;;;;;;;2.67;1.75;;;15.60;99.90;;;;;;7395525;19;20157;-74
2023/08/10 03:30:03;;;;;;;2.05;1.70;;;15.60;99.90;;;;;;7390630;19;20500;-74
2023/08/10 03:32:29;;;;;;;1.55;1.45;;;15.80;99.90;;;;;;7392548;19;20518;-75
2023/08/10 03:34:55;;;;;;;1.42;1.30;;;15.80;99.90;;;;;;7392557;19;20139;-74
2023/08/10 03:37:20;;;;;;;1.70;1.50;;;15.80;99.90;;;;;;7391834;19;20135;-74
2023/08/10 03:39:46;;;;;;;1.88;1.50;;;16.10;99.90;;;;;;7393481;19;20135;-74
2023/08/10 03:42:12;;;;;;;2.17;1.60;;;16.20;99.90;;;;;;7390193;19;20141;-74
2023/08/10 03:44:38;;;;;;;2.03;1.50;;;16.50;99.90;;;;;;7392812;19;20125;-74
2023/08/10 03:47:04;;;;;;;3.13;2.00;;;16.60;99.90;;;;;;7393174;19;20134;-74
2023/08/10 03:49:29;;;;;;;3.47;2.08;;;16.60;99.90;;;;;;7390683;19;20154;-75
2023/08/10 03:51:56;;;;;;;3.35;3.05;;;16.70;99.90;;;;;;7390906;19;20150;-75
2023/08/10 03:54:22;;;;;;;2.38;1.70;;;16.50;99.90;;;;;;7391348;19;20134;-74
2023/08/10 03:56:48;;;;;;;2.53;1.67;;;16.40;99.90;;;;;;7391928;19;20134;-73
2023/08/10 03:59:14;;;;;;;2.70;1.80;;;16.20;99.90;;;;;;7391929;19;20134;-75
2023/08/10 04:01:42;;;;;;;3.67;2.03;;;16.40;99.90;;;;;;7389467;19;20206;-74
2023/08/10 04:04:08;;;;;;;2.58;2.17;;;16.40;99.90;;;;;;7388373;19;20618;-74
2023/08/10 04:06:34;;;;;;;4.28;2.10;;;16.50;99.90;;;;;;7389906;19;20157;-73
2023/08/10 04:08:59;;;;;;;5.13;2.63;;;16.60;99.90;;;;;;7389327;19;20135;-73
2023/08/10 04:11:25;;;;;;;4.50;2.72;;;16.50;99.90;;;;;;7390606;19;20250;-74
2023/08/10 04:13:51;;;;;;;3.88;2.42;;;16.50;99.90;;;;;;7390972;19;20650;-75
2023/08/10 04:16:17;;;;;;;3.85;2.42;;;16.40;99.90;;;;;;7391082;19;20131;-73
2023/08/10 04:18:42;;;;;;;4.53;2.10;;;15.90;99.90;;;;;;7389129;19;20189;-73
2023/08/10 04:21:08;;;;;;;4.68;2.08;;;15.80;99.90;;;;;;7388753;19;20135;-73
2023/08/10 04:23:34;;;;;;;4.10;2.33;;;15.90;99.90;;;;;;7390734;19;20214;-74
2023/08/10 04:26:00;;;;;;;4.43;2.53;;;16.00;99.90;;;;;;7391434;19;20143;-74
2023/08/10 04:28:26;;;;;;;5.88;2.58;;;16.00;99.90;;;;;;7390648;19;20557;-74
2023/08/10 04:30:52;;;;;;;4.70;2.20;;;16.30;99.90;;;;;;7390550;19;20150;-75
2023/08/10 04:33:18;;;;;;;2.70;2.33;;;16.40;99.90;;;;;;7389107;19;20592;-74
2023/08/10 04:35:44;;;;;;;3.83;2.60;;;16.30;99.90;;;;;;7389528;19;20146;-72
2023/08/10 04:38:12;;;;;;;3.78;2.63;;;16.20;99.90;;;;;;7390869;19;20134;-74
2023/08/10 04:40:38;;;;;;;4.57;2.60;;;16.10;99.90;;;;;;7389307;19;20126;-73
2023/08/10 04:43:04;;;;;;;4.63;2.40;;;15.80;99.90;;;;;;7387933;19;20501;-73
2023/08/10 04:45:30;;;;;;;3.67;2.85;;;15.90;99.90;;;;;;7390660;19;20269;-74
2023/08/10 04:47:55;;;;;;;4.80;2.45;;;16.00;99.90;;;;;;7388432;19;20138;-76
2023/08/10 04:50:21;;;;;;;3.40;2.63;;;15.80;99.90;;;;;;7388862;19;20211;-73
2023/08/10 04:52:47;;;;;;;5.50;2.47;;;16.10;99.90;;;;;;7387628;19;20165;-76
2023/08/10 04:55:12;;;;;;;6.13;2.22;;;16.30;99.90;;;;;;7390049;19;20134;-74
2023/08/10 04:57:39;;;;;;;4.28;2.75;;;16.10;99.90;;;;;;7390862;19;20131;-75
2023/08/10 05:00:14;;;;;;;4.07;2.42;;;16.00;99.90;;;;;;7386078;19;20194;-73
2023/08/10 05:02:41;;;;;;;4.53;2.47;;;15.70;99.90;;;;;;7388585;19;20137;-76
2023/08/10 05:05:10;;;;;;;5.25;2.78;;;15.50;99.90;;;;;;7390455;19;20171;-75
2023/08/10 05:07:37;;;;;;;4.68;2.70;;;15.90;99.90;;;;;;7386861;19;20979;-74
2023/08/10 05:10:08;;;;;;;4.63;2.85;;;16.30;99.90;;;;;;7388013;19;20138;-74
2023/08/10 05:12:37;;;;;;;3.67;2.50;;;16.20;99.90;;;;;;7388453;19;21121;-74
2023/08/10 05:15:04;;;;;;;5.13;2.85;;;16.40;99.90;;;;;;7387907;19;20206;-74
2023/08/10 05:17:30;;;;;;;4.90;2.85;;;16.50;99.90;;;;;;7390022;19;20151;-73
2023/08/10 05:19:56;;;;;;;7.03;2.90;;;16.40;99.90;;;;;;7388277;19;20139;-73
2023/08/10 05:22:22;;;;;;;4.93;2.97;;;16.40;99.90;;;;;;7385781;19;20145;-74
2023/08/10 05:24:47;;;;;;;3.38;2.63;;;16.30;99.90;;;;;;7388888;19;20142;-74
2023/08/10 05:27:13;;;;;;;5.35;3.08;;;16.20;99.90;;;;;;7385557;19;20230;-76
2023/08/10 05:29:39;;;;;;;4.78;3.13;;;16.00;99.90;;;;;;7388545;19;20126;-78
2023/08/10 05:32:04;;;;;;;3.97;3.03;;;16.10;99.90;;;;;;7388832;19;20157;-76
2023/08/10 05:34:30;;;;;;;4.22;2.38;;;16.20;99.90;;;;;;7385909;19;20150;-75
2023/08/10 05:36:56;;;;;;;3.92;3.13;;;16.10;99.90;;;;;;7388733;19;20139;-77
2023/08/10 05:39:23;;;;;;;4.43;2.78;;;16.00;99.90;;;;;;7383951;19;20150;-75
2023/08/10 05:41:48;;;;;;;5.90;3.58;;;15.90;99.90;;;;;;7384090;19;20154;-75
2023/08/10 05:44:14;;;;;;;4.30;2.92;;;15.80;99.90;;;;;;7388356;19;20138;-75
2023/08/10 05:46:40;;;;;;;3.15;2.85;;;15.80;99.90;;;;;;7386934;19;21267;-75
2023/08/10 05:49:06;;;;;;;6.50;3.15;;;15.80;99.90;;;;;;7386612;19;20130;-75
2023/08/10 05:51:31;;;;;;;6.00;3.47;;;16.10;99.90;;;;;;7386000;19;20471;-74
2023/08/10 05:53:57;;;;;;;5.88;3.50;;;16.40;99.90;;;;;;7392368;19;20130;-75
2023/08/10 05:56:23;;;;;;;11.25;4.28;;;16.60;99.90;;;;;;7392929;19;20134;-75
2023/08/10 05:58:48;;;;;;;7.55;4.07;;;16.90;99.90;;;;;;7393737;19;20141;-74
2023/08/10 06:01:14;;;;;;;6.82;3.85;;;17.20;99.90;;;;;;7393457;19;20590;-76
2023/08/10 06:03:40;;;;;;;7.93;3.33;;;17.40;99.90;;;;;;7393758;19;20151;-74
2023/08/10 06:06:08;;;;;;;5.35;3.35;;;17.60;99.90;;;;;;7393149;19;20206;-74
2023/08/10 06:08:34;;;;;;;4.13;3.30;;;17.40;99.90;;;;;;7392690;19;20150;-74
2023/08/10 06:11:05;;;;;;;3.58;2.90;;;17.00;99.90;;;;;;7392663;19;20168;-74
2023/08/10 06:13:32;;;;;;;14.85;9.82;;;17.20;99.90;;;;;;7393879;19;20139;-75
2023/08/10 06:15:58;;;;;;;5.78;3.95;;;17.50;99.90;;;;;;7392686;19;20225;-75
2023/08/10 06:18:23;;;;;;;4.03;3.22;;;17.70;99.90;;;;;;7394225;19;20139;-74
2023/08/10 06:20:52;;;;;;;6.97;3.58;;;17.70;99.90;;;;;;7390017;19;20149;-72
2023/08/10 06:23:18;;;;;;;4.03;2.90;;;17.70;99.90;;;;;;7389100;19;20139;-74
2023/08/10 06:25:43;;;;;;;5.43;3.78;;;17.70;99.90;;;;;;7381651;19;20140;-74
2023/08/10 06:28:09;;;;;;;4.63;3.83;;;17.50;99.90;;;;;;7385619;19;20138;-73
2023/08/10 06:30:35;;;;;;;3.33;2.50;;;17.60;99.90;;;;;;7391484;19;20161;-75
2023/08/10 06:33:01;;;;;;;3.75;2.70;;;17.40;99.90;;;;;;7392782;19;20173;-74
2023/08/10 06:35:54;;;;;;;4.90;2.92;;;17.20;99.90;;;;;;7395035;19;20582;-78
2023/08/10 06:38:23;;;;;;;3.85;2.60;;;17.60;99.90;;;;;;7390678;19;20977;-76
2023/08/10 06:40:48;;;;;;;3.80;2.28;;;17.70;99.90;;;;;;7393100;19;20150;-74
2023/08/10 06:43:14;;;;;;;3.63;3.13;;;17.80;99.90;;;;;;7392128;19;20150;-74
2023/08/10 06:45:40;;;;;;;4.68;3.20;;;18.10;99.90;;;;;;7393841;19;20139;-73
2023/08/10 06:48:06;;;;;;;2.95;2.40;;;18.00;99.90;;;;;;7390641;19;20151;-72
2023/08/10 06:50:32;;;;;;;6.10;3.03;;;17.70;99.90;;;;;;7386575;19;20135;-74
2023/08/10 06:53:00;;;;;;;3.63;2.90;;;17.80;99.90;;;;;;7390021;19;20131;-75
2023/08/10 06:55:27;;;;;;;9.40;2.78;;;17.90;99.90;;;;;;7389884;19;20592;-73
2023/08/10 06:57:53;;;;;;;2.95;1.92;;;18.10;99.90;;;;;;7391975;19;20134;-74
2023/08/10 07:00:24;;;;;;;2.53;2.17;;;18.20;99.90;;;;;;7393243;19;20160;-74
2023/08/10 07:02:53;;;;;;;5.40;3.00;;;18.30;99.90;;;;;;7391229;19;20134;-74
2023/08/10 07:05:21;;;;;;;6.32;2.22;;;18.30;99.90;;;;;;7389911;19;20171;-73
2023/08/10 07:07:47;;;;;;;2.42;2.13;;;18.40;99.90;;;;;;7389293;19;20880;-74
2023/08/10 07:10:14;;;;;;;5.75;2.63;;;18.20;99.90;;;;;;7392538;19;20165;-74
2023/08/10 07:12:40;;;;;;;3.25;2.38;;;18.30;99.90;;;;;;7391488;19;20181;-76
2023/08/10 07:15:10;;;;;;;4.95;2.20;;;18.30;99.90;;;;;;7393146;19;20139;-74
2023/08/10 07:17:36;;;;;;;1.98;1.80;;;18.10;99.90;;;;;;7390648;19;20162;-73
2023/08/10 07:20:06;;;;;;;4.03;2.45;;;18.20;99.90;;;;;;7393258;19;20147;-74
2023/08/10 07:22:34;;;;;;;4.22;3.42;;;18.40;99.90;;;;;;7389636;19;20150;-73
2023/08/10 07:25:05;;;;;;;4.57;2.20;;;18.50;99.90;;;;;;7391138;19;20245;-72
2023/08/10 07:27:32;;;;;;;2.35;2.00;;;18.40;99.90;;;;;;7390334;19;20574;-72
2023/08/10 07:29:58;;;;;;;3.53;2.05;;;18.20;99.90;;;;;;7389319;19;20143;-74
2023/08/10 07:32:23;;;;;;;3.67;2.70;;;18.40;99.90;;;;;;7392186;19;20135;-74
2023/08/10 07:34:49;;;;;;;2.53;1.95;;;18.50;99.90;;;;;;7389588;19;20599;-73
2023/08/10 07:37:16;;;;;;;3.40;2.22;;;18.70;99.90;;;;;;7391567;19;20649;-75
2023/08/10 07:39:42;;;;;;;3.70;2.78;;;18.80;99.90;;;;;;7389186;19;20153;-74
2023/08/10 07:42:09;;;;;;;30.48;20.88;;;18.90;99.90;;;;;;7387222;19;20582;-73
2023/08/10 07:44:34;;;;;;;15.15;9.30;;;19.00;99.90;;;;;;7391306;19;20139;-75
2023/08/10 07:47:00;;;;;;;4.28;3.10;;;19.00;99.90;;;;;;7391839;19;20166;-72
2023/08/10 07:49:27;;;;;;;4.88;3.63;;;19.10;99.90;;;;;;7391410;19;20166;-77
2023/08/10 07:51:53;;;;;;;3.50;2.28;;;19.00;99.90;;;;;;7389529;19;20142;-74
2023/08/10 07:54:19;;;;;;;3.10;2.20;;;19.30;99.90;;;;;;7388918;19;20162;-73
2023/08/10 07:56:45;;;;;;;2.67;2.10;;;19.40;99.90;;;;;;7388814;19;20785;-74
2023/08/10 07:59:12;;;;;;;2.25;1.70;;;19.50;99.90;;;;;;7388449;19;20147;-73
2023/08/10 08:01:38;;;;;;;10.35;6.00;;;19.60;99.90;;;;;;7384294;19;20138;-73
2023/08/10 08:04:04;;;;;;;2.92;1.90;;;19.60;99.90;;;;;;7388681;19;20626;-75
2023/08/10 08:06:31;;;;;;;2.40;1.80;;;19.70;99.90;;;;;;7392940;19;20135;-74
2023/08/10 08:08:58;;;;;;;3.33;2.00;;;19.80;99.90;;;;;;7389534;19;20497;-75
2023/08/10 08:11:24;;;;;;;4.43;2.55;;;20.00;99.90;;;;;;7387588;19;20154;-74
2023/08/10 08:13:49;;;;;;;6.15;3.97;;;20.20;99.90;;;;;;7388698;19;20566;-75
2023/08/10 08:16:15;;;;;;;6.85;4.38;;;20.40;99.90;;;;;;7389152;19;20150;-75
2023/08/10 08:18:44;;;;;;;8.77;5.68;;;20.50;99.90;;;;;;7389287;19;20167;-73
2023/08/10 08:21:11;;;;;;;3.67;1.90;;;20.60;99.90;;;;;;7389339;19;20135;-73
2023/08/10 08:23:37;;;;;;;2.60;1.92;;;20.60;99.90;;;;;;7389659;19;20119;-73
2023/08/10 08:26:03;;;;;;;2.78;2.35;;;20.50;99.90;;;;;;7390230;19;20677;-73
2023/08/10 08:28:29;;;;;;;2.38;1.70;;;20.50;99.90;;;;;;7388042;19;20130;-74
2023/08/10 08:30:55;;;;;;;2.13;1.90;;;20.70;99.90;;;;;;7389426;19;20533;-73
2023/08/10 08:33:21;;;;;;;3.03;2.00;;;20.70;99.90;;;;;;7388789;19;20225;-72
2023/08/10 08:35:47;;;;;;;4.13;1.90;;;20.80;99.90;;;;;;7389000;19;20143;-74
2023/08/10 08:38:17;;;;;;;2.67;2.13;;;21.00;99.90;;;;;;7389349;19;20130;-74
2023/08/10 08:40:44;;;;;;;5.43;2.28;;;21.00;99.90;;;;;;7389952;19;20607;-74
2023/08/10 08:43:10;;;;;;;4.45;3.25;;;21.10;99.90;;;;;;7386807;19;20218;-73
2023/08/10 08:45:38;;;;;;;4.47;3.30;;;21.30;99.90;;;;;;7388163;19;20206;-74
2023/08/10 08:48:07;;;;;;;4.53;2.63;;;21.30;99.90;;;;;;7388658;19;20156;-74
2023/08/10 08:50:35;;;;;;;3.25;2.00;;;21.60;99.90;;;;;;7388274;19;20172;-73
2023/08/10 08:53:04;;;;;;;3.80;2.10;;;21.80;99.90;;;;;;7389554;19;20147;-73
2023/08/10 08:55:31;;;;;;;3.83;2.50;;;21.80;99.90;;;;;;7392114;19;20130;-76
2023/08/10 08:57:56;;;;;;;2.72;1.88;;;21.80;99.90;;;;;;7388371;19;20131;-75
2023/08/10 09:00:23;;;;;;;3.92;2.05;;;21.70;99.90;;;;;;7390345;19;20153;-76
2023/08/10 09:02:53;;;;;;;6.03;3.20;;;21.90;99.90;;;;;;7388597;19;20139;-75
2023/08/10 09:05:19;;;;;;;11.68;9.65;;;22.10;99.90;;;;;;7387359;19;20211;-74
2023/08/10 09:07:45;;;;;;;4.38;2.92;;;22.30;99.90;;;;;;7389007;19;20153;-75
2023/08/10 09:10:11;;;;;;;4.95;3.47;;;22.50;99.90;;;;;;7388805;19;20139;-75
2023/08/10 09:12:40;;;;;;;4.65;3.75;;;22.70;99.90;;;;;;7388556;19;20197;-75
2023/08/10 09:15:09;;;;;;;2.95;1.90;;;22.60;99.90;;;;;;7387766;19;20210;-74
2023/08/10 09:17:37;;;;;;;3.17;1.83;;;22.50;99.90;;;;;;7391207;19;20587;-75
2023/08/10 09:20:05;;;;;;;2.10;1.90;;;22.50;99.90;;;;;;7390413;19;20171;-76
2023/08/10 09:22:37;;;;;;;4.32;2.90;;;22.70;99.90;;;;;;7388876;19;20151;-75
2023/08/10 09:25:05;;;;;;;2.35;2.00;;;22.80;99.90;;;;;;7390944;19;20147;-74
2023/08/10 09:27:30;;;;;;;2.17;1.98;;;22.80;99.90;;;;;;7386629;19;20138;-74
2023/08/10 09:30:04;;;;;;;3.45;2.53;;;22.70;99.90;;;;;;7390140;19;20575;-75
2023/08/10 09:32:30;;;;;;;4.05;2.80;;;22.40;99.90;;;;;;7391069;19;20138;-75
2023/08/10 09:34:56;;;;;;;2.92;1.98;;;22.30;99.90;;;;;;7384651;19;20454;-74
2023/08/10 09:37:24;;;;;;;3.72;2.08;;;22.30;99.90;;;;;;7391068;19;20218;-74
2023/08/10 09:40:04;;;;;;;2.20;1.80;;;22.00;99.90;;;;;;7390177;19;20163;-75
2023/08/10 09:42:31;;;;;;;5.80;2.25;;;22.00;99.90;;;;;;7387874;19;20157;-74
2023/08/10 09:45:08;;;;;;;6.55;2.30;;;22.00;99.90;;;;;;7388152;19;20131;-75
2023/08/10 09:47:39;;;;;;;4.03;2.40;;;22.10;99.90;;;;;;7386775;19;20130;-74
2023/08/10 09:50:12;;;;;;;5.13;2.35;;;22.10;99.90;;;;;;7386385;19;20609;-76
2023/08/10 09:52:38;;;;;;;6.30;2.72;;;22.00;99.90;;;;;;7386999;19;20138;-74
2023/08/10 09:55:06;;;;;;;7.20;2.38;;;22.00;99.90;;;;;;7387078;19;20169;-76
2023/08/10 09:57:33;;;;;;;5.45;2.63;;;22.10;99.90;;;;;;7388917;19;20138;-74
2023/08/10 09:59:59;;;;;;;4.95;2.78;;;22.20;99.90;;;;;;7384916;19;20142;-74
2023/08/10 10:02:25;;;;;;;9.20;4.05;;;22.30;99.90;;;;;;7384694;19;20275;-75
2023/08/10 10:04:52;;;;;;;25.48;17.65;;;22.40;99.90;;;;;;7383892;19;20186;-75
2023/08/10 10:07:27;;;;;;;18.95;12.65;;;22.50;99.90;;;;;;7386399;19;20155;-74
2023/08/10 10:09:59;;;;;;;3.65;2.20;;;22.60;99.90;;;;;;7384706;19;20141;-76
2023/08/10 10:12:25;;;;;;;2.72;2.22;;;22.60;99.90;;;;;;7387162;19;20135;-75
2023/08/10 10:14:52;;;;;;;6.93;5.68;;;22.60;99.90;;;;;;7385322;19;20608;-74
2023/08/10 10:17:21;;;;;;;5.00;3.00;;;22.60;99.90;;;;;;7387612;19;20130;-74
2023/08/10 10:19:50;;;;;;;3.70;2.70;;;22.50;99.90;;;;;;7386750;19;20138;-75
2023/08/10 10:22:18;;;;;;;4.78;4.25;;;22.50;99.90;;;;;;7383407;19;20146;-77
2023/08/10 10:24:44;;;;;;;5.03;4.22;;;22.40;99.90;;;;;;7386596;19;20138;-75
2023/08/10 10:27:11;;;;;;;6.07;4.65;;;22.40;99.90;;;;;;7387003;19;20134;-75
2023/08/10 10:29:52;;;;;;;2.75;2.30;;;22.60;99.90;;;;;;7384310;19;20141;-76
2023/08/10 10:32:20;;;;;;;5.03;3.42;;;22.90;99.90;;;;;;7387204;19;20134;-75
2023/08/10 10:34:49;;;;;;;5.05;3.75;;;23.10;99.90;;;;;;7385783;19;20139;-75
2023/08/10 10:37:26;;;;;;;4.40;2.35;;;23.20;99.90;;;;;;7385988;19;20165;-75
2023/08/10 10:39:52;;;;;;;8.00;6.30;;;23.30;99.90;;;;;;7386721;19;20142;-75
2023/08/10 10:42:19;;;;;;;2.97;2.45;;;23.40;99.90;;;;;;7390751;19;20139;-74
2023/08/10 10:45:01;;;;;;;3.97;2.92;;;23.40;99.90;;;;;;7392983;19;20147;-74
2023/08/10 10:47:34;;;;;;;4.60;2.88;;;23.10;99.90;;;;;;7393143;19;20143;-74
2023/08/10 10:50:12;;;;;;;7.95;6.50;;;22.90;99.90;;;;;;7392230;19;20877;-75
2023/08/10 10:52:38;;;;;;;4.03;2.88;;;22.80;99.90;;;;;;7392213;19;20134;-74
2023/08/10 10:55:09;;;;;;;6.90;4.90;;;22.80;99.90;;;;;;7391446;19;20606;-75
2023/08/10 10:57:38;;;;;;;3.92;2.80;;;22.90;99.90;;;;;;7393528;19;20135;-75
2023/08/10 11:00:05;;;;;;;3.65;2.17;;;23.00;99.90;;;;;;7393146;19;20135;-75
2023/08/10 11:02:33;;;;;;;3.42;1.80;;;22.80;99.90;;;;;;7389958;19;20222;-76
2023/08/10 11:04:59;;;;;;;2.75;2.13;;;22.90;99.90;;;;;;7391317;19;20160;-75
2023/08/10 11:07:25;;;;;;;3.63;1.88;;;23.00;99.90;;;;;;7391361;19;20146;-76
2023/08/10 11:09:51;;;;;;;6.85;2.60;;;23.00;99.90;;;;;;7390612;19;20157;-76
2023/08/10 11:12:18;;;;;;;14.43;3.10;;;23.10;99.90;;;;;;7392980;19;20142;-75
2023/08/10 11:14:43;;;;;;;12.45;3.20;;;23.30;99.90;;;;;;7392225;19;20134;-75
2023/08/10 11:17:09;;;;;;;8.73;2.75;;;23.30;99.90;;;;;;7392462;19;20234;-74
2023/08/10 11:19:35;;;;;;;5.38;4.00;;;23.30;99.90;;;;;;7389593;19;20135;-74
2023/08/10 11:22:02;;;;;;;2.92;2.08;;;23.50;99.90;;;;;;7389688;19;20154;-75
2023/08/10 11:24:31;;;;;;;3.97;2.00;;;23.60;99.90;;;;;;7389793;19;20138;-76
2023/08/10 11:26:57;;;;;;;3.10;2.17;;;23.60;99.90;;;;;;7390795;19;20163;-76
2023/08/10 11:29:23;;;;;;;2.55;1.80;;;23.70;99.90;;;;;;7389493;19;20155;-74
2023/08/10 11:31:49;;;;;;;3.08;1.90;;;23.80;99.90;;;;;;7393227;19;20151;-78
2023/08/10 11:34:23;;;;;;;4.00;2.28;;;23.80;99.90;;;;;;7392537;19;20131;-75
2023/08/10 11:36:50;;;;;;;13.57;3.80;;;23.70;99.90;;;;;;7394573;19;20143;-74
2023/08/10 11:39:16;;;;;;;6.43;3.60;;;23.50;99.90;;;;;;7390404;19;20161;-73
2023/08/10 11:41:43;;;;;;;4.85;2.33;;;23.50;99.90;;;;;;7388667;19;20173;-74
2023/08/10 11:44:09;;;;;;;2.17;1.75;;;23.60;99.90;;;;;;7393188;19;20135;-74
2023/08/10 11:46:35;;;;;;;2.30;1.70;;;23.60;99.90;;;;;;7393097;19;20138;-73
2023/08/10 11:49:01;;;;;;;3.63;1.95;;;23.70;99.90;;;;;;7391716;19;20135;-74
2023/08/10 11:51:36;;;;;;;4.30;1.92;;;23.70;99.90;;;;;;7390577;19;20134;-75
2023/08/10 11:54:09;;;;;;;3.15;2.30;;;23.90;99.90;;;;;;7393141;19;20585;-74
2023/08/10 11:56:44;;;;;;;3.72;2.05;;;23.90;99.90;;;;;;7389978;19;20127;-74
2023/08/10 11:59:14;;;;;;;5.25;2.17;;;23.90;99.90;;;;;;7392731;19;20130;-73
2023/08/10 12:01:54;;;;;;;6.80;2.13;;;23.90;99.90;;;;;;7389105;19;20233;-74
2023/08/10 12:04:20;;;;;;;2.58;2.38;;;23.90;99.90;;;;;;7387575;19;20198;-75
2023/08/10 12:06:46;;;;;;;7.82;6.18;;;23.90;99.90;;;;;;7392216;19;20462;-75
2023/08/10 12:09:12;;;;;;;7.22;5.60;;;24.10;99.90;;;;;;7387915;19;20141;-74
2023/08/10 12:11:39;;;;;;;3.72;1.95;;;24.30;99.90;;;;;;7391041;19;20974;-73
2023/08/10 12:14:08;;;;;;;4.07;2.28;;;24.40;99.90;;;;;;7392808;19;20157;-75
2023/08/10 12:16:34;;;;;;;3.75;2.42;;;24.40;99.90;;;;;;7392554;19;20126;-73
2023/08/10 12:18:59;;;;;;;5.10;2.05;;;24.60;99.90;;;;;;7389323;19;20154;-73
2023/08/10 12:21:26;;;;;;;5.13;2.33;;;24.60;99.90;;;;;;7390543;19;20131;-73
2023/08/10 12:23:51;;;;;;;7.05;2.38;;;24.60;99.90;;;;;;7391023;19;20131;-73
2023/08/10 12:26:17;;;;;;;6.00;2.10;;;24.50;99.90;;;;;;7391538;19;20217;-74
2023/08/10 12:28:43;;;;;;;5.07;1.95;;;24.50;99.90;;;;;;7390232;19;20478;-75
2023/08/10 12:31:09;;;;;;;6.45;3.90;;;24.50;99.90;;;;;;7390326;19;20167;-74
2023/08/10 12:33:37;;;;;;;3.67;2.47;;;24.40;99.90;;;;;;7390465;19;21762;-75
2023/08/10 12:36:03;;;;;;;7.35;2.92;;;24.40;99.90;;;;;;7392919;19;20131;-75
2023/08/10 12:38:29;;;;;;;3.20;2.10;;;24.50;99.90;;;;;;7388742;19;20179;-75
2023/08/10 12:40:55;;;;;;;2.90;1.30;;;24.50;99.90;;;;;;7390310;19;20582;-74
2023/08/10 12:43:21;;;;;;;4.38;1.85;;;24.50;99.90;;;;;;7388192;19;20254;-76
2023/08/10 12:45:47;;;;;;;3.15;1.90;;;24.50;99.90;;;;;;7390101;19;20150;-77